Baton Rouge — 2CZZ7 — position and weather

sailwx.info

Track history (hours):
 
Tides and Currents Weather Stations Pressure Air Temp Water Temp Dewpoint Dewpoint Depression Visibility Wind Speed Wind Dir Waves Ship Positions

Baton Rouge

Last reported at 2014-Aug-20 21:28 UTC. Time now 2014-Aug-20 22:28 UTC.
Position N 43°16' E 006°37'.

Length 62 m; draft 3.7 m.

Type: Pleasure craft. MMSI: 235077185.

Date/timePositionNaut miles runAvg speedWind from/ knotsBaromVisibWave heightAir tempDewpointWater temp
2014-Aug-20 21:28N 43°16' E 006°37'0 0.0
2014-Aug-20 20:28N 43°16' E 006°37'0 0.0
2014-Aug-20 19:28N 43°16' E 006°37'0 0.0
2014-Aug-20 18:25N 43°16' E 006°37'0 0.0
2014-Aug-20 17:22N 43°16' E 006°37'0 0.0
2014-Aug-20 16:28N 43°16' E 006°37'0 0.0
2014-Aug-20 15:28N 43°16' E 006°37'0 0.0
2014-Aug-20 14:31N 43°16' E 006°37'0 0.0
2014-Aug-20 13:31N 43°16' E 006°37'0 0.0
2014-Aug-20 12:28N 43°16' E 006°37'0 0.0
2014-Aug-20 11:22N 43°16' E 006°37'0 0.0
2014-Aug-20 10:31N 43°16' E 006°37'0 0.0
2014-Aug-20 09:19N 43°16' E 006°37'0 0.0
2014-Aug-20 08:31N 43°16' E 006°37'0 0.0
2014-Aug-20 07:28N 43°16' E 006°37'1 0.6
2014-Aug-20 06:33N 43°17' E 006°38'1010.4
2014-Aug-20 05:34N 43°13' E 006°51'1211.8
2014-Aug-20 04:34N 43°03' E 007°01'1212.0
2014-Aug-20 03:33N 42°54' E 007°12'1211.7
2014-Aug-20 02:33N 42°46' E 007°23'1111.4
2014-Aug-20 01:34N 42°37' E 007°33'1111.3
2014-Aug-20 00:34N 42°29' E 007°43'  
2014-Aug-13 18:28N 40°53' E 009°41'0 0.0
2014-Aug-13 17:31N 40°53' E 009°41'25 1.0
2014-Aug-12 16:09N 41°13' E 009°20'812.5
2014-Aug-12 15:33N 41°19' E 009°13'1313.0
2014-Aug-12 14:33N 41°26' E 008°59'5 1.4
2014-Aug-12 11:09N 41°30' E 008°55'  
Track history (hours):
 
Tides and Currents Weather Stations Pressure Air Temp Water Temp Dewpoint Dewpoint Depression Visibility Wind Speed Wind Dir Waves Ship Positions

Baton Rouge

Last reported at 2014-Aug-20 21:28 UTC. Time now 2014-Aug-20 22:28 UTC.
Position N 43°16' E 006°37'.

Length 62 m; draft 3.7 m.

Type: Pleasure craft. MMSI: 235077185.

Date/timePositionNaut miles runAvg speedWind from/ knotsBaromVisibWave heightAir tempDewpointWater temp
2014-Aug-20 21:28N 43°16' E 006°37'0 0.0
2014-Aug-20 20:28N 43°16' E 006°37'0 0.0
2014-Aug-20 19:28N 43°16' E 006°37'0 0.0
2014-Aug-20 18:25N 43°16' E 006°37'0 0.0
2014-Aug-20 17:22N 43°16' E 006°37'0 0.0
2014-Aug-20 16:28N 43°16' E 006°37'0 0.0
2014-Aug-20 15:28N 43°16' E 006°37'0 0.0
2014-Aug-20 14:31N 43°16' E 006°37'0 0.0
2014-Aug-20 13:31N 43°16' E 006°37'0 0.0
2014-Aug-20 12:28N 43°16' E 006°37'0 0.0
2014-Aug-20 11:22N 43°16' E 006°37'0 0.0
2014-Aug-20 10:31N 43°16' E 006°37'0 0.0
2014-Aug-20 09:19N 43°16' E 006°37'0 0.0
2014-Aug-20 08:31N 43°16' E 006°37'0 0.0
2014-Aug-20 07:28N 43°16' E 006°37'1 0.6
2014-Aug-20 06:33N 43°17' E 006°38'1010.4
2014-Aug-20 05:34N 43°13' E 006°51'1211.8
2014-Aug-20 04:34N 43°03' E 007°01'1212.0
2014-Aug-20 03:33N 42°54' E 007°12'1211.7
2014-Aug-20 02:33N 42°46' E 007°23'1111.4
2014-Aug-20 01:34N 42°37' E 007°33'1111.3
2014-Aug-20 00:34N 42°29' E 007°43'  
2014-Aug-13 18:28N 40°53' E 009°41'0 0.0
2014-Aug-13 17:31N 40°53' E 009°41'25 1.0
2014-Aug-12 16:09N 41°13' E 009°20'812.5
2014-Aug-12 15:33N 41°19' E 009°13'1313.0
2014-Aug-12 14:33N 41°26' E 008°59'5 1.4
2014-Aug-12 11:09N 41°30' E 008°55'  

Dump ship's entire track history